sensor_id;sensor_type;location;lat;lon;timestamp;temperature;humidity
15241;DHT22;7723;52.170;9.978;2023-05-07T00:01:43;9.50;99.90
15241;DHT22;7723;52.170;9.978;2023-05-07T00:04:10;9.50;99.90
15241;DHT22;7723;52.170;9.978;2023-05-07T00:06:40;9.50;99.90
15241;DHT22;7723;52.170;9.978;2023-05-07T00:09:07;9.40;99.90
15241;DHT22;7723;52.170;9.978;2023-05-07T00:11:34;9.40;99.90
15241;DHT22;7723;52.170;9.978;2023-05-07T00:14:01;9.50;99.90
15241;DHT22;7723;52.170;9.978;2023-05-07T00:16:28;10.10;99.90
15241;DHT22;7723;52.170;9.978;2023-05-07T00:18:55;9.40;99.90
15241;DHT22;7723;52.170;9.978;2023-05-07T00:21:22;9.50;99.90
15241;DHT22;7723;52.170;9.978;2023-05-07T00:23:53;9.40;99.90
15241;DHT22;7723;52.170;9.978;2023-05-07T00:26:20;9.50;99.90
15241;DHT22;7723;52.170;9.978;2023-05-07T00:28:47;9.40;99.90
15241;DHT22;7723;52.170;9.978;2023-05-07T00:31:14;9.40;99.90
15241;DHT22;7723;52.170;9.978;2023-05-07T00:33:41;9.40;99.90
15241;DHT22;7723;52.170;9.978;2023-05-07T00:36:09;9.40;99.90
15241;DHT22;7723;52.170;9.978;2023-05-07T00:38:36;9.40;99.90
15241;DHT22;7723;52.170;9.978;2023-05-07T00:41:06;9.30;99.90
15241;DHT22;7723;52.170;9.978;2023-05-07T00:43:33;9.30;99.90
15241;DHT22;7723;52.170;9.978;2023-05-07T00:46:00;9.40;99.90
15241;DHT22;7723;52.170;9.978;2023-05-07T00:48:27;9.30;99.90
15241;DHT22;7723;52.170;9.978;2023-05-07T00:50:55;9.30;99.90
15241;DHT22;7723;52.170;9.978;2023-05-07T00:53:22;9.30;99.90
15241;DHT22;7723;52.170;9.978;2023-05-07T00:55:49;9.30;99.90
15241;DHT22;7723;52.170;9.978;2023-05-07T00:58:18;9.20;99.90
15241;DHT22;7723;52.170;9.978;2023-05-07T01:00:45;9.20;99.90
15241;DHT22;7723;52.170;9.978;2023-05-07T01:03:12;9.20;99.90
15241;DHT22;7723;52.170;9.978;2023-05-07T01:05:40;9.20;99.90
15241;DHT22;7723;52.170;9.978;2023-05-07T01:08:08;9.20;99.90
15241;DHT22;7723;52.170;9.978;2023-05-07T01:10:36;9.20;99.90
15241;DHT22;7723;52.170;9.978;2023-05-07T01:13:03;9.20;99.90
15241;DHT22;7723;52.170;9.978;2023-05-07T01:15:32;9.10;99.90
15241;DHT22;7723;52.170;9.978;2023-05-07T01:17:59;9.20;99.90
15241;DHT22;7723;52.170;9.978;2023-05-07T01:20:28;9.20;99.90
15241;DHT22;7723;52.170;9.978;2023-05-07T01:22:57;9.10;99.90
15241;DHT22;7723;52.170;9.978;2023-05-07T01:25:24;9.10;99.90
15241;DHT22;7723;52.170;9.978;2023-05-07T01:27:51;9.10;99.90
15241;DHT22;7723;52.170;9.978;2023-05-07T01:30:20;9.10;99.90
15241;DHT22;7723;52.170;9.978;2023-05-07T01:32:52;9.10;99.90
15241;DHT22;7723;52.170;9.978;2023-05-07T01:35:21;9.10;99.90
15241;DHT22;7723;52.170;9.978;2023-05-07T01:37:49;9.20;99.90
15241;DHT22;7723;52.170;9.978;2023-05-07T01:40:18;9.10;99.90
15241;DHT22;7723;52.170;9.978;2023-05-07T01:42:46;9.10;99.90
15241;DHT22;7723;52.170;9.978;2023-05-07T01:45:14;9.10;99.90
15241;DHT22;7723;52.170;9.978;2023-05-07T01:47:42;9.20;99.90
15241;DHT22;7723;52.170;9.978;2023-05-07T01:50:09;9.10;99.90
15241;DHT22;7723;52.170;9.978;2023-05-07T01:52:37;9.10;99.90
15241;DHT22;7723;52.170;9.978;2023-05-07T01:55:05;9.10;99.90
15241;DHT22;7723;52.170;9.978;2023-05-07T01:57:34;9.10;99.90
15241;DHT22;7723;52.170;9.978;2023-05-07T02:00:02;9.10;99.90
15241;DHT22;7723;52.170;9.978;2023-05-07T02:02:31;9.10;99.90
15241;DHT22;7723;52.170;9.978;2023-05-07T02:04:59;9.00;99.90
15241;DHT22;7723;52.170;9.978;2023-05-07T02:07:27;9.10;99.90
15241;DHT22;7723;52.170;9.978;2023-05-07T02:09:54;9.10;99.90
15241;DHT22;7723;52.170;9.978;2023-05-07T02:12:22;9.00;99.90
15241;DHT22;7723;52.170;9.978;2023-05-07T02:14:50;9.00;99.90
15241;DHT22;7723;52.170;9.978;2023-05-07T02:17:17;9.10;99.90
15241;DHT22;7723;52.170;9.978;2023-05-07T02:19:44;9.10;99.90
15241;DHT22;7723;52.170;9.978;2023-05-07T02:22:11;9.10;99.90
15241;DHT22;7723;52.170;9.978;2023-05-07T02:24:38;9.10;99.90
15241;DHT22;7723;52.170;9.978;2023-05-07T02:27:05;9.10;99.90
15241;DHT22;7723;52.170;9.978;2023-05-07T02:29:32;9.00;99.90
15241;DHT22;7723;52.170;9.978;2023-05-07T02:32:01;9.10;99.90
15241;DHT22;7723;52.170;9.978;2023-05-07T02:34:28;9.10;99.90
15241;DHT22;7723;52.170;9.978;2023-05-07T02:36:55;9.10;99.90
15241;DHT22;7723;52.170;9.978;2023-05-07T02:39:22;9.10;99.90
15241;DHT22;7723;52.170;9.978;2023-05-07T02:41:49;9.10;99.90
15241;DHT22;7723;52.170;9.978;2023-05-07T02:44:16;9.10;99.90
15241;DHT22;7723;52.170;9.978;2023-05-07T02:46:43;9.10;99.90
15241;DHT22;7723;52.170;9.978;2023-05-07T02:49:12;9.00;99.90
15241;DHT22;7723;52.170;9.978;2023-05-07T02:51:39;9.10;99.90
15241;DHT22;7723;52.170;9.978;2023-05-07T02:54:06;9.00;99.90
15241;DHT22;7723;52.170;9.978;2023-05-07T02:56:33;9.10;99.90
15241;DHT22;7723;52.170;9.978;2023-05-07T02:59:00;9.10;99.90
15241;DHT22;7723;52.170;9.978;2023-05-07T03:01:27;9.00;99.90
15241;DHT22;7723;52.170;9.978;2023-05-07T03:03:54;9.10;99.90
15241;DHT22;7723;52.170;9.978;2023-05-07T03:06:23;9.00;99.90
15241;DHT22;7723;52.170;9.978;2023-05-07T03:08:50;9.00;99.90
15241;DHT22;7723;52.170;9.978;2023-05-07T03:11:17;9.00;99.90
15241;DHT22;7723;52.170;9.978;2023-05-07T03:13:45;9.00;99.90
15241;DHT22;7723;52.170;9.978;2023-05-07T03:16:12;9.00;99.90
15241;DHT22;7723;52.170;9.978;2023-05-07T03:18:39;9.00;99.90
15241;DHT22;7723;52.170;9.978;2023-05-07T03:21:06;9.00;99.90
15241;DHT22;7723;52.170;9.978;2023-05-07T03:23:35;9.00;99.90
15241;DHT22;7723;52.170;9.978;2023-05-07T03:26:02;9.00;99.90
15241;DHT22;7723;52.170;9.978;2023-05-07T03:28:29;9.00;99.90
15241;DHT22;7723;52.170;9.978;2023-05-07T03:30:56;9.10;99.90
15241;DHT22;7723;52.170;9.978;2023-05-07T03:33:23;9.00;99.90
15241;DHT22;7723;52.170;9.978;2023-05-07T03:35:50;9.00;99.90
15241;DHT22;7723;52.170;9.978;2023-05-07T03:38:18;9.00;99.90
15241;DHT22;7723;52.170;9.978;2023-05-07T03:40:46;9.00;99.90
15241;DHT22;7723;52.170;9.978;2023-05-07T03:43:13;8.90;99.90
15241;DHT22;7723;52.170;9.978;2023-05-07T03:45:40;9.00;99.90
15241;DHT22;7723;52.170;9.978;2023-05-07T03:48:07;9.00;99.90
15241;DHT22;7723;52.170;9.978;2023-05-07T03:50:34;9.00;99.90
15241;DHT22;7723;52.170;9.978;2023-05-07T03:53:01;9.00;99.90
15241;DHT22;7723;52.170;9.978;2023-05-07T03:55:28;8.90;99.90
15241;DHT22;7723;52.170;9.978;2023-05-07T03:57:57;9.00;99.90
15241;DHT22;7723;52.170;9.978;2023-05-07T04:00:24;8.90;99.90
15241;DHT22;7723;52.170;9.978;2023-05-07T04:02:51;8.90;99.90
15241;DHT22;7723;52.170;9.978;2023-05-07T04:05:18;8.90;99.90
15241;DHT22;7723;52.170;9.978;2023-05-07T04:07:45;9.00;99.90
15241;DHT22;7723;52.170;9.978;2023-05-07T04:10:12;9.00;99.90
15241;DHT22;7723;52.170;9.978;2023-05-07T04:12:40;8.90;99.90
15241;DHT22;7723;52.170;9.978;2023-05-07T04:15:10;8.90;99.90
15241;DHT22;7723;52.170;9.978;2023-05-07T04:17:37;8.90;99.90
15241;DHT22;7723;52.170;9.978;2023-05-07T04:20:05;8.90;99.90
15241;DHT22;7723;52.170;9.978;2023-05-07T04:22:32;8.90;99.90
15241;DHT22;7723;52.170;9.978;2023-05-07T04:25:00;8.90;99.90
15241;DHT22;7723;52.170;9.978;2023-05-07T04:27:27;8.90;99.90
15241;DHT22;7723;52.170;9.978;2023-05-07T04:29:55;8.90;99.90
15241;DHT22;7723;52.170;9.978;2023-05-07T04:32:23;8.90;99.90
15241;DHT22;7723;52.170;9.978;2023-05-07T04:34:51;9.00;99.90
15241;DHT22;7723;52.170;9.978;2023-05-07T04:37:18;8.90;99.90
15241;DHT22;7723;52.170;9.978;2023-05-07T04:39:45;8.90;99.90
15241;DHT22;7723;52.170;9.978;2023-05-07T04:42:15;8.90;99.90
15241;DHT22;7723;52.170;9.978;2023-05-07T04:44:43;8.90;99.90
15241;DHT22;7723;52.170;9.978;2023-05-07T04:47:10;8.90;99.90
15241;DHT22;7723;52.170;9.978;2023-05-07T04:49:39;8.80;99.90
15241;DHT22;7723;52.170;9.978;2023-05-07T04:52:06;8.90;99.90
15241;DHT22;7723;52.170;9.978;2023-05-07T04:54:33;8.90;99.90
15241;DHT22;7723;52.170;9.978;2023-05-07T04:57:02;8.80;99.90
15241;DHT22;7723;52.170;9.978;2023-05-07T04:59:30;8.90;99.90
15241;DHT22;7723;52.170;9.978;2023-05-07T05:01:57;8.90;99.90
15241;DHT22;7723;52.170;9.978;2023-05-07T05:04:24;8.90;99.90
15241;DHT22;7723;52.170;9.978;2023-05-07T05:06:53;8.90;99.90
15241;DHT22;7723;52.170;9.978;2023-05-07T05:09:20;8.90;99.90
15241;DHT22;7723;52.170;9.978;2023-05-07T05:11:47;8.90;99.90
15241;DHT22;7723;52.170;9.978;2023-05-07T05:14:14;8.90;99.90
15241;DHT22;7723;52.170;9.978;2023-05-07T05:16:41;8.90;99.90
15241;DHT22;7723;52.170;9.978;2023-05-07T05:19:08;8.90;99.90
15241;DHT22;7723;52.170;9.978;2023-05-07T05:21:36;8.90;99.90
15241;DHT22;7723;52.170;9.978;2023-05-07T05:24:04;8.90;99.90
15241;DHT22;7723;52.170;9.978;2023-05-07T05:26:32;8.90;99.90
15241;DHT22;7723;52.170;9.978;2023-05-07T05:28:59;9.00;99.90
15241;DHT22;7723;52.170;9.978;2023-05-07T05:31:26;9.00;99.90
15241;DHT22;7723;52.170;9.978;2023-05-07T05:33:53;9.00;99.90
15241;DHT22;7723;52.170;9.978;2023-05-07T05:36:20;8.90;99.90
15241;DHT22;7723;52.170;9.978;2023-05-07T05:38:47;8.90;99.90
15241;DHT22;7723;52.170;9.978;2023-05-07T05:41:16;8.90;99.90
15241;DHT22;7723;52.170;9.978;2023-05-07T05:43:43;9.00;99.90
15241;DHT22;7723;52.170;9.978;2023-05-07T05:46:10;9.00;99.90
15241;DHT22;7723;52.170;9.978;2023-05-07T05:48:37;9.00;99.90
15241;DHT22;7723;52.170;9.978;2023-05-07T05:51:05;9.00;99.90
15241;DHT22;7723;52.170;9.978;2023-05-07T05:53:32;9.00;99.90
15241;DHT22;7723;52.170;9.978;2023-05-07T05:55:59;9.00;99.90
15241;DHT22;7723;52.170;9.978;2023-05-07T05:58:28;9.00;99.90
15241;DHT22;7723;52.170;9.978;2023-05-07T06:00:55;9.10;99.90
15241;DHT22;7723;52.170;9.978;2023-05-07T06:03:22;9.00;99.90
15241;DHT22;7723;52.170;9.978;2023-05-07T06:05:49;9.10;99.90
15241;DHT22;7723;52.170;9.978;2023-05-07T06:08:16;9.10;99.90
15241;DHT22;7723;52.170;9.978;2023-05-07T06:10:44;9.10;99.90
15241;DHT22;7723;52.170;9.978;2023-05-07T06:13:11;9.10;99.90
15241;DHT22;7723;52.170;9.978;2023-05-07T06:15:39;9.20;99.90
15241;DHT22;7723;52.170;9.978;2023-05-07T06:18:07;9.20;99.90
15241;DHT22;7723;52.170;9.978;2023-05-07T06:20:34;9.30;99.90
15241;DHT22;7723;52.170;9.978;2023-05-07T06:23:01;9.30;99.90
15241;DHT22;7723;52.170;9.978;2023-05-07T06:25:28;9.40;99.90
15241;DHT22;7723;52.170;9.978;2023-05-07T06:27:55;9.30;99.90
15241;DHT22;7723;52.170;9.978;2023-05-07T06:30:22;9.40;99.90
15241;DHT22;7723;52.170;9.978;2023-05-07T06:32:50;9.40;99.90
15241;DHT22;7723;52.170;9.978;2023-05-07T06:35:18;9.50;99.90
15241;DHT22;7723;52.170;9.978;2023-05-07T06:37:45;9.60;99.90
15241;DHT22;7723;52.170;9.978;2023-05-07T06:40:12;9.70;99.90
15241;DHT22;7723;52.170;9.978;2023-05-07T06:42:39;9.70;99.90
15241;DHT22;7723;52.170;9.978;2023-05-07T06:45:07;9.80;99.90
15241;DHT22;7723;52.170;9.978;2023-05-07T06:47:35;10.00;99.90
15241;DHT22;7723;52.170;9.978;2023-05-07T06:50:04;10.00;99.90
15241;DHT22;7723;52.170;9.978;2023-05-07T06:52:31;10.00;99.90
15241;DHT22;7723;52.170;9.978;2023-05-07T06:54:59;10.10;99.90
15241;DHT22;7723;52.170;9.978;2023-05-07T06:57:26;10.10;99.90
15241;DHT22;7723;52.170;9.978;2023-05-07T06:59:54;10.20;99.90
15241;DHT22;7723;52.170;9.978;2023-05-07T07:02:21;10.20;99.90
15241;DHT22;7723;52.170;9.978;2023-05-07T07:04:48;10.20;99.90
15241;DHT22;7723;52.170;9.978;2023-05-07T07:07:17;10.20;99.90
15241;DHT22;7723;52.170;9.978;2023-05-07T07:09:44;10.30;99.90
15241;DHT22;7723;52.170;9.978;2023-05-07T07:12:11;10.40;99.90
15241;DHT22;7723;52.170;9.978;2023-05-07T07:14:38;10.40;99.90
15241;DHT22;7723;52.170;9.978;2023-05-07T07:17:05;10.50;99.90
15241;DHT22;7723;52.170;9.978;2023-05-07T07:19:32;10.60;99.90
15241;DHT22;7723;52.170;9.978;2023-05-07T07:21:59;10.70;99.90
15241;DHT22;7723;52.170;9.978;2023-05-07T07:24:27;10.70;99.90
15241;DHT22;7723;52.170;9.978;2023-05-07T07:26:54;10.70;99.90
15241;DHT22;7723;52.170;9.978;2023-05-07T07:29:22;10.80;99.90
15241;DHT22;7723;52.170;9.978;2023-05-07T07:31:51;10.90;99.90
15241;DHT22;7723;52.170;9.978;2023-05-07T07:34:18;10.90;99.90
15241;DHT22;7723;52.170;9.978;2023-05-07T07:36:45;11.00;99.90
15241;DHT22;7723;52.170;9.978;2023-05-07T07:39:12;10.90;99.90
15241;DHT22;7723;52.170;9.978;2023-05-07T07:41:41;11.00;99.90
15241;DHT22;7723;52.170;9.978;2023-05-07T07:44:08;11.10;99.90
15241;DHT22;7723;52.170;9.978;2023-05-07T07:46:38;11.20;99.90
15241;DHT22;7723;52.170;9.978;2023-05-07T07:49:05;11.50;99.90
15241;DHT22;7723;52.170;9.978;2023-05-07T07:51:32;11.50;99.90
15241;DHT22;7723;52.170;9.978;2023-05-07T07:53:59;11.50;99.90
15241;DHT22;7723;52.170;9.978;2023-05-07T07:56:28;11.60;99.90
15241;DHT22;7723;52.170;9.978;2023-05-07T07:58:56;11.80;99.90
15241;DHT22;7723;52.170;9.978;2023-05-07T08:01:23;11.70;99.90
15241;DHT22;7723;52.170;9.978;2023-05-07T08:03:51;11.60;99.90
15241;DHT22;7723;52.170;9.978;2023-05-07T08:06:18;11.40;99.90
15241;DHT22;7723;52.170;9.978;2023-05-07T08:08:46;11.20;99.90
15241;DHT22;7723;52.170;9.978;2023-05-07T08:11:13;11.20;99.90
15241;DHT22;7723;52.170;9.978;2023-05-07T08:13:40;11.30;99.90
15241;DHT22;7723;52.170;9.978;2023-05-07T08:16:08;11.30;99.90
15241;DHT22;7723;52.170;9.978;2023-05-07T08:18:36;11.60;99.90
15241;DHT22;7723;52.170;9.978;2023-05-07T08:21:04;11.70;99.90
15241;DHT22;7723;52.170;9.978;2023-05-07T08:23:31;11.80;99.90
15241;DHT22;7723;52.170;9.978;2023-05-07T08:26:00;11.40;99.90
15241;DHT22;7723;52.170;9.978;2023-05-07T08:28:27;11.50;99.90
15241;DHT22;7723;52.170;9.978;2023-05-07T08:30:54;11.30;99.90
15241;DHT22;7723;52.170;9.978;2023-05-07T08:33:23;11.30;99.90
15241;DHT22;7723;52.170;9.978;2023-05-07T08:35:50;11.10;99.90
15241;DHT22;7723;52.170;9.978;2023-05-07T08:38:17;11.20;99.90
15241;DHT22;7723;52.170;9.978;2023-05-07T08:40:45;11.50;99.90
15241;DHT22;7723;52.170;9.978;2023-05-07T08:43:13;11.50;99.90
15241;DHT22;7723;52.170;9.978;2023-05-07T08:45:41;11.50;99.90
15241;DHT22;7723;52.170;9.978;2023-05-07T08:48:15;11.40;99.90
15241;DHT22;7723;52.170;9.978;2023-05-07T08:50:43;11.40;99.90
15241;DHT22;7723;52.170;9.978;2023-05-07T08:53:10;11.40;99.90
15241;DHT22;7723;52.170;9.978;2023-05-07T08:55:38;11.30;99.90
15241;DHT22;7723;52.170;9.978;2023-05-07T08:58:05;11.40;99.90
15241;DHT22;7723;52.170;9.978;2023-05-07T09:00:32;11.30;99.90
15241;DHT22;7723;52.170;9.978;2023-05-07T09:03:00;11.40;99.90
15241;DHT22;7723;52.170;9.978;2023-05-07T09:05:28;11.50;99.90
15241;DHT22;7723;52.170;9.978;2023-05-07T09:07:59;11.60;99.90
15241;DHT22;7723;52.170;9.978;2023-05-07T09:10:26;11.60;99.90
15241;DHT22;7723;52.170;9.978;2023-05-07T09:12:53;11.70;99.90
15241;DHT22;7723;52.170;9.978;2023-05-07T09:15:20;11.90;99.90
15241;DHT22;7723;52.170;9.978;2023-05-07T09:17:47;11.80;99.90
15241;DHT22;7723;52.170;9.978;2023-05-07T09:20:16;11.70;99.90
15241;DHT22;7723;52.170;9.978;2023-05-07T09:22:43;11.80;99.90
15241;DHT22;7723;52.170;9.978;2023-05-07T09:25:12;11.90;99.90
15241;DHT22;7723;52.170;9.978;2023-05-07T09:27:40;11.70;99.90
15241;DHT22;7723;52.170;9.978;2023-05-07T09:30:09;11.70;99.90
15241;DHT22;7723;52.170;9.978;2023-05-07T09:32:36;11.80;99.90
15241;DHT22;7723;52.170;9.978;2023-05-07T09:35:05;11.50;99.90
15241;DHT22;7723;52.170;9.978;2023-05-07T09:37:32;11.60;99.90
15241;DHT22;7723;52.170;9.978;2023-05-07T09:40:00;11.60;99.90
15241;DHT22;7723;52.170;9.978;2023-05-07T09:42:29;11.70;99.90
15241;DHT22;7723;52.170;9.978;2023-05-07T09:44:56;12.00;99.90
15241;DHT22;7723;52.170;9.978;2023-05-07T09:47:24;12.10;99.90
15241;DHT22;7723;52.170;9.978;2023-05-07T09:49:56;12.00;99.90
15241;DHT22;7723;52.170;9.978;2023-05-07T09:52:24;12.20;99.90
15241;DHT22;7723;52.170;9.978;2023-05-07T09:54:55;12.00;99.90
15241;DHT22;7723;52.170;9.978;2023-05-07T09:57:25;12.00;99.90
15241;DHT22;7723;52.170;9.978;2023-05-07T09:59:56;11.90;99.90
15241;DHT22;7723;52.170;9.978;2023-05-07T10:02:23;12.10;99.90
15241;DHT22;7723;52.170;9.978;2023-05-07T10:04:52;12.10;99.90
15241;DHT22;7723;52.170;9.978;2023-05-07T10:07:21;12.10;99.90
15241;DHT22;7723;52.170;9.978;2023-05-07T10:09:50;12.00;99.90
15241;DHT22;7723;52.170;9.978;2023-05-07T10:12:19;12.30;99.90
15241;DHT22;7723;52.170;9.978;2023-05-07T10:14:46;12.10;99.90
15241;DHT22;7723;52.170;9.978;2023-05-07T10:17:16;12.00;99.90
15241;DHT22;7723;52.170;9.978;2023-05-07T10:19:45;12.00;99.90
15241;DHT22;7723;52.170;9.978;2023-05-07T10:22:14;12.10;99.90
15241;DHT22;7723;52.170;9.978;2023-05-07T10:24:42;12.20;99.90
15241;DHT22;7723;52.170;9.978;2023-05-07T10:27:12;12.10;99.90
15241;DHT22;7723;52.170;9.978;2023-05-07T10:29:48;12.20;99.90
15241;DHT22;7723;52.170;9.978;2023-05-07T10:32:35;12.40;99.90
15241;DHT22;7723;52.170;9.978;2023-05-07T10:35:10;12.50;99.90
15241;DHT22;7723;52.170;9.978;2023-05-07T10:37:38;12.50;99.90
15241;DHT22;7723;52.170;9.978;2023-05-07T10:40:07;12.40;99.90
15241;DHT22;7723;52.170;9.978;2023-05-07T10:42:35;12.60;99.90
15241;DHT22;7723;52.170;9.978;2023-05-07T10:45:12;12.50;99.90
15241;DHT22;7723;52.170;9.978;2023-05-07T10:48:09;12.40;99.90
15241;DHT22;7723;52.170;9.978;2023-05-07T10:50:37;12.90;99.90
15241;DHT22;7723;52.170;9.978;2023-05-07T10:53:24;13.10;99.90
15241;DHT22;7723;52.170;9.978;2023-05-07T10:58:50;12.90;99.90
15241;DHT22;7723;52.170;9.978;2023-05-07T11:01:53;12.70;99.90
15241;DHT22;7723;52.170;9.978;2023-05-07T11:04:22;12.60;99.90
15241;DHT22;7723;52.170;9.978;2023-05-07T11:07:21;12.70;99.90
15241;DHT22;7723;52.170;9.978;2023-05-07T11:10:02;12.60;99.90
15241;DHT22;7723;52.170;9.978;2023-05-07T11:12:53;12.90;99.90
15241;DHT22;7723;52.170;9.978;2023-05-07T11:15:40;13.00;99.90
15241;DHT22;7723;52.170;9.978;2023-05-07T11:18:09;13.10;99.90
15241;DHT22;7723;52.170;9.978;2023-05-07T11:20:53;13.10;99.90
15241;DHT22;7723;52.170;9.978;2023-05-07T11:23:56;13.00;99.90
15241;DHT22;7723;52.170;9.978;2023-05-07T11:26:28;13.20;99.90
15241;DHT22;7723;52.170;9.978;2023-05-07T11:28:57;12.90;99.90
15241;DHT22;7723;52.170;9.978;2023-05-07T11:31:26;13.30;99.90
15241;DHT22;7723;52.170;9.978;2023-05-07T11:33:55;13.10;99.90
15241;DHT22;7723;52.170;9.978;2023-05-07T11:36:25;13.20;99.90
15241;DHT22;7723;52.170;9.978;2023-05-07T11:38:53;13.20;99.90
15241;DHT22;7723;52.170;9.978;2023-05-07T11:41:20;13.10;99.90
15241;DHT22;7723;52.170;9.978;2023-05-07T11:43:58;13.30;99.90
15241;DHT22;7723;52.170;9.978;2023-05-07T11:46:27;13.60;99.90
15241;DHT22;7723;52.170;9.978;2023-05-07T11:48:55;13.90;99.90
15241;DHT22;7723;52.170;9.978;2023-05-07T11:51:24;13.60;96.40
15241;DHT22;7723;52.170;9.978;2023-05-07T11:53:53;13.60;98.60
15241;DHT22;7723;52.170;9.978;2023-05-07T11:56:20;13.50;99.90
15241;DHT22;7723;52.170;9.978;2023-05-07T11:58:48;13.60;99.80
15241;DHT22;7723;52.170;9.978;2023-05-07T12:01:17;13.80;99.90
15241;DHT22;7723;52.170;9.978;2023-05-07T12:03:45;13.50;99.90
15241;DHT22;7723;52.170;9.978;2023-05-07T12:06:14;13.90;99.90
15241;DHT22;7723;52.170;9.978;2023-05-07T12:08:44;14.10;96.20
15241;DHT22;7723;52.170;9.978;2023-05-07T12:11:14;13.70;75.70
15241;DHT22;7723;52.170;9.978;2023-05-07T12:13:43;13.90;91.20
15241;DHT22;7723;52.170;9.978;2023-05-07T12:16:11;13.60;98.70
15241;DHT22;7723;52.170;9.978;2023-05-07T12:18:38;13.80;79.80
15241;DHT22;7723;52.170;9.978;2023-05-07T12:21:06;14.00;93.30
15241;DHT22;7723;52.170;9.978;2023-05-07T12:23:34;14.30;64.00
15241;DHT22;7723;52.170;9.978;2023-05-07T12:26:04;14.20;28.70
15241;DHT22;7723;52.170;9.978;2023-05-07T12:28:32;14.00;37.30
15241;DHT22;7723;52.170;9.978;2023-05-07T12:31:03;13.70;49.90
15241;DHT22;7723;52.170;9.978;2023-05-07T12:33:31;13.70;75.60
15241;DHT22;7723;52.170;9.978;2023-05-07T12:36:00;13.60;83.60
15241;DHT22;7723;52.170;9.978;2023-05-07T12:38:35;13.70;54.20
15241;DHT22;7723;52.170;9.978;2023-05-07T12:41:04;14.00;42.60
15241;DHT22;7723;52.170;9.978;2023-05-07T12:43:34;14.10;34.70
15241;DHT22;7723;52.170;9.978;2023-05-07T12:46:02;14.20;20.50
15241;DHT22;7723;52.170;9.978;2023-05-07T12:48:30;14.10;44.80
15241;DHT22;7723;52.170;9.978;2023-05-07T12:51:00;13.90;30.20
15241;DHT22;7723;52.170;9.978;2023-05-07T12:53:28;13.60;24.00
15241;DHT22;7723;52.170;9.978;2023-05-07T12:55:58;13.60;45.40
15241;DHT22;7723;52.170;9.978;2023-05-07T12:58:28;13.80;75.60
15241;DHT22;7723;52.170;9.978;2023-05-07T13:00:56;14.00;31.70
15241;DHT22;7723;52.170;9.978;2023-05-07T13:03:27;13.90;48.70
15241;DHT22;7723;52.170;9.978;2023-05-07T13:05:55;14.10;43.70
15241;DHT22;7723;52.170;9.978;2023-05-07T13:08:27;14.20;34.80
15241;DHT22;7723;52.170;9.978;2023-05-07T13:10:54;14.30;1.00
15241;DHT22;7723;52.170;9.978;2023-05-07T13:13:22;14.20;1.00
15241;DHT22;7723;52.170;9.978;2023-05-07T13:15:50;13.90;1.00
15241;DHT22;7723;52.170;9.978;2023-05-07T13:18:17;13.80;6.80
15241;DHT22;7723;52.170;9.978;2023-05-07T13:20:44;13.70;24.30
15241;DHT22;7723;52.170;9.978;2023-05-07T13:23:11;13.70;31.30
15241;DHT22;7723;52.170;9.978;2023-05-07T13:25:38;14.00;9.90
15241;DHT22;7723;52.170;9.978;2023-05-07T13:28:05;13.90;15.10
15241;DHT22;7723;52.170;9.978;2023-05-07T13:30:33;14.30;11.00
15241;DHT22;7723;52.170;9.978;2023-05-07T13:33:02;14.40;1.00
15241;DHT22;7723;52.170;9.978;2023-05-07T13:35:29;14.40;1.00
15241;DHT22;7723;52.170;9.978;2023-05-07T13:37:56;14.40;1.00
15241;DHT22;7723;52.170;9.978;2023-05-07T13:40:23;14.60;1.00
15241;DHT22;7723;52.170;9.978;2023-05-07T13:42:51;14.50;1.00
15241;DHT22;7723;52.170;9.978;2023-05-07T13:45:18;14.50;1.00
15241;DHT22;7723;52.170;9.978;2023-05-07T13:47:46;14.50;1.00
15241;DHT22;7723;52.170;9.978;2023-05-07T13:50:16;14.40;1.00
15241;DHT22;7723;52.170;9.978;2023-05-07T13:52:44;14.20;1.00
15241;DHT22;7723;52.170;9.978;2023-05-07T13:55:16;14.30;1.00
15241;DHT22;7723;52.170;9.978;2023-05-07T13:57:43;14.10;1.00
15241;DHT22;7723;52.170;9.978;2023-05-07T14:00:13;14.20;1.00
15241;DHT22;7723;52.170;9.978;2023-05-07T14:02:43;14.20;1.00
15241;DHT22;7723;52.170;9.978;2023-05-07T14:05:10;14.30;1.00
15241;DHT22;7723;52.170;9.978;2023-05-07T14:07:40;14.20;1.00
15241;DHT22;7723;52.170;9.978;2023-05-07T14:10:08;14.00;1.00
15241;DHT22;7723;52.170;9.978;2023-05-07T14:12:36;13.90;1.00
15241;DHT22;7723;52.170;9.978;2023-05-07T14:15:04;14.10;1.00
15241;DHT22;7723;52.170;9.978;2023-05-07T14:17:31;14.30;1.00
15241;DHT22;7723;52.170;9.978;2023-05-07T14:19:58;14.20;1.00
15241;DHT22;7723;52.170;9.978;2023-05-07T14:22:26;14.20;1.00
15241;DHT22;7723;52.170;9.978;2023-05-07T14:24:54;13.90;1.00
15241;DHT22;7723;52.170;9.978;2023-05-07T14:27:21;13.90;1.00
15241;DHT22;7723;52.170;9.978;2023-05-07T14:29:48;14.10;1.00
15241;DHT22;7723;52.170;9.978;2023-05-07T14:32:17;14.10;1.00
15241;DHT22;7723;52.170;9.978;2023-05-07T14:34:44;13.90;1.00
15241;DHT22;7723;52.170;9.978;2023-05-07T14:37:12;13.90;1.00
15241;DHT22;7723;52.170;9.978;2023-05-07T14:39:39;14.00;1.00
15241;DHT22;7723;52.170;9.978;2023-05-07T14:42:08;14.00;1.00
15241;DHT22;7723;52.170;9.978;2023-05-07T14:44:35;14.10;1.00
15241;DHT22;7723;52.170;9.978;2023-05-07T14:47:02;14.20;1.00
15241;DHT22;7723;52.170;9.978;2023-05-07T14:49:29;14.40;1.00
15241;DHT22;7723;52.170;9.978;2023-05-07T14:51:57;14.30;1.00
15241;DHT22;7723;52.170;9.978;2023-05-07T14:54:26;14.30;1.00
15241;DHT22;7723;52.170;9.978;2023-05-07T14:56:53;14.10;1.00
15241;DHT22;7723;52.170;9.978;2023-05-07T14:59:21;14.10;1.00
15241;DHT22;7723;52.170;9.978;2023-05-07T15:01:50;14.10;1.00
15241;DHT22;7723;52.170;9.978;2023-05-07T15:04:17;14.10;1.00
15241;DHT22;7723;52.170;9.978;2023-05-07T15:06:44;13.90;1.00
15241;DHT22;7723;52.170;9.978;2023-05-07T15:09:12;13.90;1.00
15241;DHT22;7723;52.170;9.978;2023-05-07T15:11:39;13.80;1.00
15241;DHT22;7723;52.170;9.978;2023-05-07T15:14:06;13.80;1.00
15241;DHT22;7723;52.170;9.978;2023-05-07T15:16:34;13.60;1.00
15241;DHT22;7723;52.170;9.978;2023-05-07T15:19:01;13.80;1.00
15241;DHT22;7723;52.170;9.978;2023-05-07T15:21:28;13.70;1.00
15241;DHT22;7723;52.170;9.978;2023-05-07T15:23:56;13.70;1.00
15241;DHT22;7723;52.170;9.978;2023-05-07T15:26:23;13.80;1.00
15241;DHT22;7723;52.170;9.978;2023-05-07T15:28:51;13.70;1.00
15241;DHT22;7723;52.170;9.978;2023-05-07T15:31:18;13.80;1.00
15241;DHT22;7723;52.170;9.978;2023-05-07T15:33:47;13.70;1.00
15241;DHT22;7723;52.170;9.978;2023-05-07T15:36:14;13.60;1.00
15241;DHT22;7723;52.170;9.978;2023-05-07T15:38:41;13.60;1.00
15241;DHT22;7723;52.170;9.978;2023-05-07T15:41:09;13.60;1.00
15241;DHT22;7723;52.170;9.978;2023-05-07T15:43:44;13.70;1.00
15241;DHT22;7723;52.170;9.978;2023-05-07T15:46:11;13.70;1.00
15241;DHT22;7723;52.170;9.978;2023-05-07T15:48:38;13.70;1.00
15241;DHT22;7723;52.170;9.978;2023-05-07T15:51:11;13.70;1.00
15241;DHT22;7723;52.170;9.978;2023-05-07T15:53:38;13.70;1.00
15241;DHT22;7723;52.170;9.978;2023-05-07T15:56:06;13.80;1.00
15241;DHT22;7723;52.170;9.978;2023-05-07T15:58:33;13.70;1.00
15241;DHT22;7723;52.170;9.978;2023-05-07T16:01:00;13.70;1.00
15241;DHT22;7723;52.170;9.978;2023-05-07T16:03:28;13.50;1.00
15241;DHT22;7723;52.170;9.978;2023-05-07T16:05:55;13.20;1.00